Latest Weather Observations for Fitzroy Crossing

IDW60801

Issued at 7:33 pm WST Thursday 23 February 2017 (issued every 30 minutes, with the page automatically refreshed every 10 minutes)

About weather observations | Map of weather stations | Latest weather observations for WA | Other Formats
Station Details ID: 003093 Name: FITZROY CROSSING AERO Lat: -18.18 Lon: 125.56 Height: 114.5 m
Data from the previous 72 hours. | See also: Recent months at Fitzroy Crossing
Date/Time
WST
Temp
°C
App
Temp
°C
Dew
Point
°C
Rel
Hum
%
Delta-T
°C
Wind Press
QNH
hPa
Press
MSL
hPa
Rain since
9am
mm
Dir  Spd
km/h
Gust
km/h
Spd
kts
Gust
kts
23/07:30pm 30.7 33.7 22.0 59 5.9 W 9 9 5 5 1009.0 1008.1 0.0
23/07:00pm 31.9 35.5 22.3 56 6.6 WNW 7 9 4 5 1008.9 1008.0 0.0
23/06:30pm 32.8 38.3 23.4 57 6.5 CALM 0 0 0 0 1008.7 1007.8 0.0
23/06:00pm 35.0 40.3 23.0 49 8.4 CALM 0 0 0 0 1008.3 1007.4 0.0
23/05:30pm 37.5 41.8 22.0 40 10.7 WSW 2 7 1 4 1008.2 1007.3 0.0
23/05:00pm 38.0 40.1 18.9 32 12.7 SW 6 9 3 5 1008.0 1007.1 0.0
23/04:30pm 38.2 39.6 18.6 31 13.0 SSW 9 15 5 8 1008.0 1007.1 0.0
23/04:00pm 38.2 40.0 19.6 34 12.5 SW 9 19 5 10 1007.8 1006.9 0.0
23/03:30pm 38.3 40.5 19.2 32 12.8 SSW 6 13 3 7 1007.9 1007.0 0.0
23/03:00pm 38.1 40.8 21.3 37 11.5 SSE 9 13 5 7 1008.3 1007.4 0.0
23/02:30pm 37.9 39.5 20.7 36 11.7 SSW 13 22 7 12 1008.5 1007.6 0.0
23/02:00pm 37.4 39.7 20.7 38 11.4 S 9 20 5 11 1008.6 1007.7 0.0
23/01:30pm 37.7 40.9 23.7 44 9.9 SSW 13 20 7 11 1008.8 1007.9 0.0
23/01:00pm 36.6 39.5 23.1 45 9.4 SW 13 22 7 12 1009.2 1008.3 0.0
23/12:30pm 36.7 39.8 24.2 48 8.8 SSW 15 22 8 12 1009.8 1008.9 0.0
23/12:00pm 36.4 40.0 24.3 49 8.6 SSW 13 17 7 9 1010.3 1009.4 0.0
23/11:30am 35.7 38.7 23.3 48 8.7 SSW 13 20 7 11 1010.5 1009.6 0.0
23/11:00am 35.1 38.0 23.1 49 8.4 S 13 17 7 9 1010.9 1010.0 0.0
23/10:30am 35.0 38.4 23.3 50 8.2 SSW 11 19 6 10 1011.3 1010.4 0.0
23/10:00am 34.2 37.7 23.6 54 7.4 SSW 11 17 6 9 1011.7 1010.8 0.0
23/09:30am 33.5 38.3 24.1 58 6.6 WSW 6 22 3 12 1011.9 1011.0 0.0
23/09:00am 32.5 36.6 24.0 61 6.0 SW 9 15 5 8 1012.1 1011.2 0.0
23/08:30am 31.4 36.4 23.8 64 5.3 SSW 4 9 2 5 1012.2 1011.3 0.0
23/08:00am 30.1 34.8 24.3 71 4.1 SW 7 11 4 6 1012.2 1011.3 0.0
23/07:30am 28.7 34.1 23.8 75 3.4 WSW 2 7 1 4 1012.1 1011.2 0.0
23/07:00am 27.4 31.6 23.4 79 2.7 W 7 9 4 5 1011.9 1011.0 0.0
23/06:30am 26.4 30.0 23.1 82 2.3 WNW 9 13 5 7 1011.5 1010.6 0.0
23/06:00am 25.7 29.0 23.2 86 1.7 NW 11 13 6 7 1011.1 1010.2 0.0
23/05:30am 25.3 28.8 22.8 86 1.7 NNW 9 13 5 7 1010.9 1010.0 0.0
23/05:00am 25.2 28.7 22.9 87 1.6 N 9 11 5 6 1010.6 1009.7 0.0
23/04:30am 25.5 29.6 23.2 87 1.6 NNW 7 9 4 5 1010.5 1009.6 0.0
23/04:00am 25.6 29.8 23.1 86 1.7 W 6 7 3 4 1010.4 1009.5 0.0
23/03:30am 25.8 29.8 23.1 85 1.8 NW 7 11 4 6 1010.1 1009.2 0.0
23/03:00am 25.9 30.3 23.4 86 1.7 WNW 6 7 3 4 1010.0 1009.1 0.0
23/02:30am 26.0 29.8 23.5 86 1.7 WNW 9 13 5 7 1009.9 1009.0 0.0
23/02:00am 26.2 30.0 23.5 85 1.9 WNW 9 11 5 6 1010.2 1009.3 0.0
23/01:30am 26.1 30.0 23.6 86 1.7 WNW 9 11 5 6 1010.3 1009.4 0.0
23/01:00am 26.2 30.5 23.7 86 1.7 WNW 7 9 4 5 1010.4 1009.5 0.0
23/12:30am 26.4 30.0 23.7 85 1.9 NW 11 15 6 8 1010.8 1009.9 0.0
23/12:00am 26.6 30.9 23.3 82 2.3 N 6 11 3 6 1011.0 1010.1 0.0
 
Date/Time
WST
Temp
°C
App
Temp
°C
Dew
Point
°C
Rel
Hum
%
Delta-T
°C
Wind Press
QNH
hPa
Press
MSL
hPa
Rain since
9am
mm
Dir  Spd
km/h
Gust
km/h
Spd
kts
Gust
kts
22/11:30pm 26.6 32.3 23.7 84 2.0 CALM 0 0 0 0 1011.2 1010.3 0.0
22/11:00pm 26.9 32.5 23.6 82 2.3 CALM 0 0 0 0 1011.7 1010.8 0.0
22/10:30pm 26.9 31.6 23.4 81 2.4 NNW 4 7 2 4 1011.9 1011.0 0.0
22/10:00pm 26.6 32.0 23.3 82 2.3 CALM 0 0 0 0 1012.0 1011.1 0.0
22/09:30pm 26.6 30.6 23.1 81 2.4 WSW 7 9 4 5 1012.1 1011.2 0.0
22/09:00pm 26.8 32.4 23.5 82 2.3 CALM 0 0 0 0 1011.7 1010.8 0.0
22/08:30pm 27.1 32.4 23.1 79 2.7 CALM 0 0 0 0 1011.3 1010.4 0.0
22/08:00pm 27.3 32.5 23.5 80 2.6 S 2 9 1 5 1010.9 1010.0 0.0
22/07:30pm 27.7 31.1 22.0 71 3.8 SSE 7 9 4 5 1010.5 1009.6 0.0
22/07:00pm 28.0 31.9 22.5 72 3.7 SSW 6 9 3 5 1010.4 1009.5 0.0
22/06:30pm 28.7 30.7 21.5 65 4.8 S 13 17 7 9 1010.3 1009.4 0.0
22/06:00pm 29.8 31.0 20.6 57 6.1 SSE 15 24 8 13 1009.9 1009.0 0.0
22/05:30pm 33.8 35.3 21.2 47 8.5 S 15 20 8 11 1009.6 1008.7 0.0
22/05:00pm 35.1 37.0 21.4 45 9.4 SSW 13 19 7 10 1009.1 1008.2 0.0
22/04:30pm 35.8 37.5 20.1 40 10.5 SSW 11 17 6 9 1008.5 1007.6 0.0
22/04:00pm 35.9 37.4 21.3 42 10.0 SSW 15 20 8 11 1008.9 1008.0 0.0
22/03:30pm 36.0 38.2 21.8 43 9.8 WSW 13 20 7 11 1008.8 1007.9 0.0
22/03:00pm 36.2 38.8 22.0 43 9.8 SW 11 17 6 9 1009.0 1008.1 0.0
22/02:30pm 35.9 38.8 23.2 48 8.9 SW 13 22 7 12 1009.3 1008.4 0.0
22/02:00pm 35.2 37.6 22.9 49 8.6 SSW 15 24 8 13 1009.6 1008.7 0.0
22/01:30pm 35.2 37.7 23.2 49 8.4 S 15 22 8 12 1009.9 1009.0 0.0
22/01:00pm 34.3 37.1 23.0 51 7.9 S 13 20 7 11 1010.1 1009.2 0.0
22/12:30pm 33.5 36.2 22.9 53 7.3 SSW 13 19 7 10 1010.6 1009.7 0.0
22/12:00pm 33.3 36.1 23.0 54 7.1 SW 13 24 7 13 1011.0 1010.1 0.0
22/11:30am 33.8 36.5 23.5 55 7.2 S 15 20 8 11 1011.5 1010.6 0.0
22/11:00am 32.9 35.5 22.7 55 7.0 SW 13 19 7 10 1012.1 1011.2 0.0
22/10:30am 33.7 35.8 22.5 52 7.7 WSW 15 24 8 13 1012.5 1011.6 0.0
22/10:00am 32.3 33.9 22.1 55 7.0 W 17 26 9 14 1012.9 1012.1 0.0
22/09:30am 32.0 34.9 23.8 62 5.7 WSW 15 24 8 13 1013.0 1012.2 0.0
22/09:00am 31.8 34.4 23.9 63 5.5 W 17 22 9 12 1013.1 1012.3 0.0
22/08:30am 31.1 33.3 24.0 66 5.0 W 19 30 10 16 1013.3 1012.5 0.0
22/08:00am 29.8 31.7 23.5 69 4.4 WSW 19 24 10 13 1013.4 1012.6 0.0
22/07:30am 28.7 32.0 23.8 75 3.4 WNW 13 17 7 9 1013.3 1012.5 0.0
22/07:00am 27.8 30.8 24.0 80 2.6 WNW 15 20 8 11 1013.1 1012.3 0.0
22/06:30am 27.0 30.1 24.1 84 2.0 NW 15 17 8 9 1012.7 1011.8 0.0
22/06:00am 26.3 29.8 24.2 88 1.5 NNW 13 15 7 8 1012.3 1011.4 0.0
22/05:30am 26.0 29.8 24.0 89 1.4 NNW 11 13 6 7 1012.1 1011.2 0.0
22/05:00am 26.0 30.6 24.2 90 1.2 N 7 9 4 5 1011.8 1010.9 0.0
22/04:30am 26.1 30.7 24.1 89 1.4 NNW 7 11 4 6 1011.6 1010.7 0.0
22/04:00am 26.2 30.4 24.1 88 1.5 NNW 9 11 5 6 1011.2 1010.3 0.0
22/03:30am 26.2 30.4 24.1 88 1.5 NNW 9 13 5 7 1010.7 1009.8 0.0
22/03:00am 26.4 30.6 24.1 87 1.6 NNW 9 13 5 7 1010.6 1009.7 0.0
22/02:30am 26.4 31.1 23.9 86 1.7 N 6 9 3 5 1010.4 1009.5 0.0
22/02:00am 26.4 30.9 23.7 85 1.9 NW 6 9 3 5 1010.2 1009.3 0.0
22/01:30am 26.5 30.8 23.6 84 2.0 WNW 7 13 4 7 1010.1 1009.2 0.0
22/01:00am 26.4 30.5 23.3 83 2.1 WNW 7 9 4 5 1010.3 1009.4 0.0
22/12:30am 26.6 31.9 23.1 81 2.4 CALM 0 6 0 3 1010.8 1009.9 0.0
22/12:00am 26.5 30.0 22.8 80 2.5 WNW 9 13 5 7 1010.7 1009.8 0.0
 
Date/Time
WST
Temp
°C
App
Temp
°C
Dew
Point
°C
Rel
Hum
%
Delta-T
°C
Wind Press
QNH
hPa
Press
MSL
hPa
Rain since
9am
mm
Dir  Spd
km/h
Gust
km/h
Spd
kts
Gust
kts
21/11:30pm 26.5 29.7 22.3 78 2.8 WNW 9 15 5 8 1010.9 1010.0 0.0
21/11:00pm 26.4 30.0 22.0 77 3.0 W 6 9 3 5 1011.1 1010.2 0.0
21/10:30pm 27.2 28.8 22.2 74 3.4 NW 17 22 9 12 1011.0 1010.1 0.0
21/10:00pm 27.4 29.7 22.1 73 3.6 NNW 13 15 7 8 1011.0 1010.1 0.0
21/09:30pm 27.4 30.0 21.9 72 3.7 NW 11 17 6 9 1011.1 1010.2 0.0
21/09:00pm 27.5 29.5 21.5 70 4.0 WNW 13 17 7 9 1011.0 1010.1 0.0
21/08:30pm 27.9 30.5 21.9 70 4.0 WNW 11 15 6 8 1010.8 1009.9 0.0
21/08:00pm 28.4 31.1 22.2 69 4.2 WNW 11 15 6 8 1010.5 1009.6 0.0
21/07:30pm 28.6 31.3 22.1 68 4.4 WNW 11 15 6 8 1010.2 1009.3 0.0
21/07:00pm 29.0 31.0 21.5 64 5.0 WNW 13 17 7 9 1010.1 1009.2 0.0
21/06:30pm 29.4 32.7 22.6 67 4.6 WSW 9 13 5 7 1009.5 1008.6 0.0
21/06:00pm 30.3 32.9 21.9 60 5.7 W 11 15 6 8 1009.1 1008.2 0.0
21/05:30pm 30.8 33.0 21.9 59 6.0 NW 13 26 7 14 1008.6 1007.7 0.0
21/05:00pm 32.3 34.2 22.7 57 6.6 NW 17 26 9 14 1008.5 1007.6 0.0
21/04:30pm 33.4 34.5 21.9 51 7.9 WNW 19 24 10 13 1008.2 1007.3 0.0
21/04:00pm 36.2 39.5 20.8 40 10.5 SSE 4 11 2 6 1007.8 1006.9 0.0
21/03:30pm 36.8 39.8 20.1 37 11.2 ESE 4 9 2 5 1007.7 1006.8 0.0
21/03:00pm 36.8 39.3 21.0 40 10.8 NW 9 13 5 7 1007.9 1007.0 0.0
21/02:30pm 36.8 38.9 19.3 36 11.7 NW 7 11 4 6 1007.9 1007.0 0.0
21/02:00pm 36.5 39.2 20.3 38 10.9 NNW 6 13 3 7 1008.5 1007.6 0.0
21/01:30pm 36.2 39.0 20.8 40 10.4 NW 7 11 4 6 1009.0 1008.1 0.0
21/01:00pm 35.6 38.5 21.8 44 9.5 NW 9 15 5 8 1009.4 1008.5 0.0
21/12:30pm 35.6 38.7 21.5 44 9.6 N 7 13 4 7 1009.7 1008.8 0.0
21/12:00pm 35.1 37.4 20.6 42 9.8 N 9 13 5 7 1010.5 1009.6 0.0
21/11:30am 34.8 37.9 21.5 46 9.1 NNE 7 15 4 8 1011.1 1010.2 0.0
21/11:00am 34.3 37.5 21.7 47 8.6 N 7 13 4 7 1011.6 1010.7 0.0
21/10:30am 33.6 36.8 22.4 52 7.7 NNW 9 13 5 7 1012.1 1011.2 0.0
21/10:00am 33.7 37.7 23.7 56 7.0 N 9 13 5 7 1012.5 1011.6 0.0
21/09:30am 33.2 38.4 23.5 56 6.8 NW 2 7 1 4 1012.8 1012.0 0.0
21/09:00am 32.1 36.7 23.1 59 6.2 WSW 4 11 2 6 1012.9 1012.1 0.0
21/08:30am 31.4 35.3 23.0 61 5.8 W 7 11 4 6 1012.8 1012.0 0.0
21/08:00am 30.2 34.3 23.9 69 4.4 NW 9 13 5 7 1012.8 1012.0 0.0
21/07:30am 29.1 32.7 23.8 73 3.7 NNW 11 15 6 8 1012.6 1011.7 0.0
21/07:00am 28.1 31.0 23.2 74 3.4 NW 13 17 7 9 1012.4 1011.5 0.0
21/06:30am 27.0 30.8 23.5 81 2.4 WNW 9 11 5 6 1011.8 1010.9 0.0
21/06:00am 25.9 29.6 23.2 85 1.8 WNW 9 11 5 6 1011.4 1010.5 0.0
21/05:30am 25.6 29.3 23.3 87 1.6 WNW 9 11 5 6 1011.0 1010.1 0.0
21/05:00am 26.0 29.7 23.3 85 1.8 NW 9 13 5 7 1010.7 1009.8 0.0
21/04:30am 26.2 29.3 23.5 85 1.9 NNW 13 17 7 9 1010.3 1009.4 0.0
21/04:00am 26.0 29.6 23.7 87 1.6 N 11 15 6 8 1010.1 1009.2 0.0
21/03:30am 26.6 29.9 23.9 85 1.9 NNW 13 19 7 10 1009.9 1009.0 0.0
21/03:00am 26.4 29.9 23.5 84 2.0 N 11 17 6 9 1009.9 1009.0 0.0
21/02:30am 26.6 30.4 23.5 83 2.1 NNW 9 15 5 8 1009.6 1008.7 0.0
21/02:00am 26.5 30.1 23.8 85 1.9 NNW 11 13 6 7 1009.4 1008.5 0.0
21/01:30am 26.4 30.4 23.7 85 1.9 WNW 9 13 5 7 1009.2 1008.3 0.0
21/01:00am 27.0 30.6 24.3 85 1.9 NW 13 19 7 10 1009.2 1008.3 0.0
21/12:30am 27.2 30.5 24.5 85 1.9 NW 15 20 8 11 1009.4 1008.5 0.0
21/12:00am 27.4 30.6 24.3 83 2.2 NW 15 20 8 11 1009.3 1008.4 0.0
 
Date/Time
WST
Temp
°C
App
Temp
°C
Dew
Point
°C
Rel
Hum
%
Delta-T
°C
Wind Press
QNH
hPa
Press
MSL
hPa
Rain since
9am
mm
Dir  Spd
km/h
Gust
km/h
Spd
kts
Gust
kts
20/11:30pm 27.5 31.5 24.4 83 2.2 WNW 11 17 6 9 1009.4 1008.5 0.0
20/11:00pm 27.7 30.9 24.3 82 2.4 WNW 15 22 8 12 1009.4 1008.5 0.0
20/10:30pm 27.8 31.8 24.4 82 2.4 NW 11 15 6 8 1009.5 1008.6 0.0
20/10:00pm 28.5 32.8 23.6 75 3.4 WNW 7 9 4 5 1009.4 1008.5 0.0
20/09:30pm 28.7 34.8 24.5 78 2.9 CALM 0 2 0 1 1009.2 1008.3 0.0
20/09:00pm 29.1 33.7 23.8 73 3.7 SSW 6 7 3 4 1009.4 1008.5 0.0
20/08:30pm 29.3 34.5 24.8 77 3.2 SSW 6 7 3 4 1009.2 1008.3 0.0
20/08:00pm 29.7 36.7 25.9 80 2.7 CALM 0 0 0 0 1009.2 1008.3 0.0

Other Formats:

Comma delimited format used in spreadsheet applications
http://www.bom.gov.au/fwo/IDW60801/IDW60801.94206.axf

JavaScript Object Notation format (JSON) in row-major order
http://www.bom.gov.au/fwo/IDW60801/IDW60801.94206.json